createdAt,value
2023-04-02T00:00:26.451Z,10.59
2023-04-02T00:03:54.174Z,10.60
2023-04-02T00:07:30.901Z,10.60
2023-04-02T00:10:37.888Z,10.59
2023-04-02T00:13:47.002Z,10.59
2023-04-02T00:16:52.143Z,10.60
2023-04-02T00:20:09.050Z,10.59
2023-04-02T00:23:14.353Z,10.59
2023-04-02T00:26:21.948Z,10.59
2023-04-02T00:29:25.241Z,10.58
2023-04-02T00:32:33.064Z,10.58
2023-04-02T00:35:39.171Z,10.58
2023-04-02T00:38:44.286Z,10.58
2023-04-02T00:41:48.955Z,10.57
2023-04-02T00:44:54.826Z,10.57
2023-04-02T00:48:00.518Z,10.56
2023-04-02T00:51:24.702Z,10.56
2023-04-02T00:54:32.813Z,10.55
2023-04-02T00:57:36.632Z,10.55
2023-04-02T01:00:40.450Z,10.54
2023-04-02T01:03:45.148Z,10.53
2023-04-02T01:06:53.679Z,10.53
2023-04-02T01:10:21.055Z,10.52
2023-04-02T01:13:36.522Z,10.51
2023-04-02T01:16:54.976Z,10.51
2023-04-02T01:20:36.690Z,10.50
2023-04-02T01:23:53.031Z,10.49
2023-04-02T01:26:57.681Z,10.48
2023-04-02T01:30:03.202Z,10.48
2023-04-02T01:33:07.272Z,10.47
2023-04-02T01:36:28.442Z,10.46
2023-04-02T01:39:52.061Z,10.46
2023-04-02T01:43:09.949Z,10.45
2023-04-02T01:46:29.742Z,10.43
2023-04-02T01:49:33.322Z,10.44
2023-04-02T01:52:45.148Z,10.43
2023-04-02T01:56:02.808Z,10.41
2023-04-02T01:59:07.204Z,10.41
2023-04-02T02:02:14.228Z,10.40
2023-04-02T02:05:21.178Z,10.40
2023-04-02T02:08:34.651Z,10.39
2023-04-02T02:11:39.058Z,10.39
2023-04-02T02:14:50.896Z,10.38
2023-04-02T02:18:03.175Z,10.36
2023-04-02T02:21:08.418Z,10.36
2023-04-02T02:24:33.051Z,10.34
2023-04-02T02:27:42.126Z,10.34
2023-04-02T02:31:02.974Z,10.33
2023-04-02T02:34:12.720Z,10.32
2023-04-02T02:37:24.961Z,10.31
2023-04-02T02:40:39.643Z,10.31
2023-04-02T02:43:52.252Z,10.30
2023-04-02T02:47:02.472Z,10.30
2023-04-02T02:50:12.812Z,10.29
2023-04-02T02:53:20.578Z,10.28
2023-04-02T02:56:24.960Z,10.27
2023-04-02T02:59:31.382Z,10.26
2023-04-02T03:02:38.707Z,10.27
2023-04-02T03:05:42.896Z,10.26
2023-04-02T03:09:00.056Z,10.26
2023-04-02T03:12:23.880Z,10.25
2023-04-02T03:15:37.060Z,10.24
2023-04-02T03:18:47.254Z,10.24
2023-04-02T03:22:15.854Z,10.24
2023-04-02T03:25:37.582Z,10.23
2023-04-02T03:28:55.159Z,10.23
2023-04-02T03:32:31.189Z,10.22
2023-04-02T03:35:42.980Z,10.21
2023-04-02T03:39:22.957Z,10.20
2023-04-02T03:42:37.273Z,10.19
2023-04-02T03:45:44.184Z,10.18
2023-04-02T03:48:53.083Z,10.16
2023-04-02T03:52:04.593Z,10.15
2023-04-02T03:55:37.057Z,10.14
2023-04-02T03:58:47.150Z,10.12
2023-04-02T04:01:59.945Z,10.11
2023-04-02T04:05:04.450Z,10.08
2023-04-02T04:08:15.404Z,10.07
2023-04-02T04:11:27.546Z,10.03
2023-04-02T04:14:37.370Z,10.00
2023-04-02T04:18:05.960Z,9.97
2023-04-02T04:21:37.854Z,9.92
2023-04-02T04:25:05.945Z,9.86
2023-04-02T04:28:26.167Z,9.82
2023-04-02T04:31:41.411Z,9.80
2023-04-02T04:34:53.655Z,9.78
2023-04-02T04:38:14.527Z,9.77
2023-04-02T04:41:24.657Z,9.75
2023-04-02T04:44:51.622Z,9.73
2023-04-02T04:48:21.807Z,9.70
2023-04-02T04:51:29.743Z,9.66
2023-04-02T04:54:38.776Z,9.63
2023-04-02T04:57:43.239Z,9.56
2023-04-02T05:01:08.121Z,9.53
2023-04-02T05:04:21.892Z,9.49
2023-04-02T05:07:27.952Z,9.46
2023-04-02T05:10:41.094Z,9.44
2023-04-02T05:13:53.895Z,9.41
2023-04-02T05:17:10.062Z,9.37
2023-04-02T05:20:16.575Z,9.33
2023-04-02T05:23:28.237Z,9.31
2023-04-02T05:26:42.177Z,9.26
2023-04-02T05:29:50.328Z,9.18
2023-04-02T05:33:05.144Z,9.10
2023-04-02T05:36:11.768Z,9.04
2023-04-02T05:39:24.697Z,8.98
2023-04-02T05:42:36.000Z,8.92
2023-04-02T05:45:51.926Z,8.85
2023-04-02T05:48:58.540Z,8.79
2023-04-02T05:52:06.365Z,8.74
2023-04-02T05:55:12.611Z,8.72
2023-04-02T05:58:37.293Z,8.67
2023-04-02T06:02:06.511Z,8.62
2023-04-02T06:05:17.341Z,8.60
2023-04-02T06:08:27.448Z,8.56
2023-04-02T06:11:42.212Z,8.54
2023-04-02T06:14:46.563Z,8.49
2023-04-02T06:17:50.862Z,8.44
2023-04-02T06:20:54.996Z,8.38
2023-04-02T06:24:03.390Z,8.34
2023-04-02T06:27:14.918Z,8.29
2023-04-02T06:30:24.685Z,8.26
2023-04-02T06:33:29.054Z,8.24
2023-04-02T06:36:33.129Z,8.21
2023-04-02T06:39:40.016Z,8.19
2023-04-02T06:42:45.665Z,8.16
2023-04-02T06:46:20.744Z,8.14
2023-04-02T06:49:47.188Z,8.13
2023-04-02T06:52:53.909Z,8.11
2023-04-02T06:56:10.597Z,8.11
2023-04-02T06:59:15.803Z,8.11
2023-04-02T07:02:37.445Z,8.11
2023-04-02T07:05:43.262Z,8.10
2023-04-02T07:08:46.839Z,8.08
2023-04-02T07:11:50.945Z,8.06
2023-04-02T07:14:54.892Z,8.05
2023-04-02T07:17:59.801Z,8.04
2023-04-02T07:21:03.338Z,8.03
2023-04-02T07:24:07.103Z,8.01
2023-04-02T07:27:11.799Z,7.96
2023-04-02T07:30:15.467Z,7.91
2023-04-02T07:33:22.741Z,7.87
2023-04-02T07:36:28.852Z,7.83
2023-04-02T07:39:33.778Z,7.77
2023-04-02T07:42:38.036Z,7.73
2023-04-02T07:45:41.391Z,7.73
2023-04-02T07:48:45.337Z,7.70
2023-04-02T07:51:48.888Z,7.66
2023-04-02T07:54:52.084Z,7.65
2023-04-02T07:58:00.156Z,7.64
2023-04-02T08:01:04.467Z,7.62
2023-04-02T08:04:22.402Z,7.60
2023-04-02T08:07:28.226Z,7.61
2023-04-02T08:10:31.753Z,7.62
2023-04-02T08:13:35.005Z,7.60
2023-04-02T08:16:52.842Z,7.58
2023-04-02T08:20:01.077Z,7.58
2023-04-02T08:23:07.106Z,7.56
2023-04-02T08:26:10.591Z,7.56
2023-04-02T08:29:13.711Z,7.55
2023-04-02T08:32:17.016Z,7.54
2023-04-02T08:35:20.212Z,7.54
2023-04-02T08:38:23.343Z,7.54
2023-04-02T08:41:32.294Z,7.53
2023-04-02T08:45:21.151Z,7.51
2023-04-02T08:48:32.696Z,7.50
2023-04-02T08:51:36.931Z,7.48
2023-04-02T08:54:43.892Z,7.45
2023-04-02T08:57:59.079Z,7.44
2023-04-02T09:01:06.044Z,7.44
2023-04-02T09:04:19.048Z,7.44
2023-04-02T09:07:22.738Z,7.44
2023-04-02T09:10:55.664Z,7.44
2023-04-02T09:14:02.218Z,7.43
2023-04-02T09:17:16.779Z,7.40
2023-04-02T09:20:26.507Z,7.34
2023-04-02T09:23:34.035Z,7.31
2023-04-02T09:26:38.089Z,7.29
2023-04-02T09:29:49.480Z,7.28
2023-04-02T09:32:57.203Z,7.29
2023-04-02T09:36:00.778Z,7.31
2023-04-02T09:39:27.198Z,7.31
2023-04-02T09:42:35.124Z,7.32
2023-04-02T09:45:54.773Z,7.35
2023-04-02T09:49:02.312Z,7.35
2023-04-02T09:52:19.377Z,7.35
2023-04-02T09:55:27.152Z,7.33
2023-04-02T09:58:30.516Z,7.29
2023-04-02T10:01:58.925Z,7.25
2023-04-02T10:05:04.834Z,7.23
2023-04-02T10:08:28.493Z,7.21
2023-04-02T10:11:46.405Z,7.18
2023-04-02T10:14:51.447Z,7.15
2023-04-02T10:18:03.766Z,7.10
2023-04-02T10:21:08.061Z,7.05
2023-04-02T10:24:16.267Z,7.04
2023-04-02T10:27:39.607Z,7.01
2023-04-02T10:30:58.561Z,6.98
2023-04-02T10:34:10.067Z,6.97
2023-04-02T10:37:39.422Z,6.96
2023-04-02T10:40:51.727Z,6.93
2023-04-02T10:44:20.038Z,6.92
2023-04-02T10:47:32.680Z,6.94
2023-04-02T10:51:06.792Z,6.91
2023-04-02T10:54:34.308Z,6.91
2023-04-02T10:57:47.948Z,6.89
2023-04-02T11:00:59.753Z,6.91
2023-04-02T11:04:37.003Z,6.92
2023-04-02T11:08:04.576Z,6.91
2023-04-02T11:11:13.468Z,6.88
2023-04-02T11:14:34.373Z,6.87
2023-04-02T11:17:38.636Z,6.89
2023-04-02T11:20:44.040Z,6.92
2023-04-02T11:24:25.059Z,6.94
2023-04-02T11:27:31.445Z,6.97
2023-04-02T11:30:34.935Z,6.98
2023-04-02T11:33:44.703Z,6.97
2023-04-02T11:36:52.707Z,6.95
2023-04-02T11:39:58.325Z,6.93
2023-04-02T11:43:32.958Z,6.92
2023-04-02T11:50:30.106Z,6.96
2023-04-02T11:53:35.040Z,6.99
2023-04-02T11:56:52.369Z,7.01
2023-04-02T12:00:12.919Z,7.00
2023-04-02T12:03:30.532Z,6.99
2023-04-02T12:06:48.704Z,7.62
2023-04-02T12:09:55.518Z,8.27
2023-04-02T12:12:58.978Z,8.23
2023-04-02T12:16:02.679Z,8.03
2023-04-02T12:19:09.566Z,7.86
2023-04-02T12:22:22.333Z,7.72
2023-04-02T12:25:40.837Z,7.61
2023-04-02T12:28:46.504Z,7.52
2023-04-02T12:31:49.854Z,7.45
2023-04-02T12:34:54.678Z,7.41
2023-04-02T12:37:58.119Z,7.38
2023-04-02T12:41:05.026Z,7.36
2023-04-02T12:44:21.840Z,7.33
2023-04-02T12:47:26.428Z,7.28
2023-04-02T12:50:29.723Z,7.22
2023-04-02T12:53:41.292Z,7.16
2023-04-02T12:56:44.851Z,7.12
2023-04-02T12:59:48.205Z,7.08
2023-04-02T13:03:06.625Z,7.05
2023-04-02T13:06:23.444Z,7.03
2023-04-02T13:09:45.158Z,7.02
2023-04-02T13:12:48.308Z,6.99
2023-04-02T13:16:12.774Z,7.00
2023-04-02T13:19:33.346Z,7.06
2023-04-02T13:22:36.655Z,7.10
2023-04-02T13:25:39.780Z,7.10
2023-04-02T13:28:59.372Z,7.07
2023-04-02T13:32:13.280Z,6.99
2023-04-02T13:35:16.844Z,6.90
2023-04-02T13:38:19.921Z,6.83
2023-04-02T13:41:26.501Z,6.79
2023-04-02T13:44:32.020Z,6.76
2023-04-02T13:47:35.163Z,6.73
2023-04-02T13:50:38.463Z,6.71
2023-04-02T13:53:42.242Z,6.70
2023-04-02T13:56:45.711Z,6.70
2023-04-02T13:59:48.829Z,6.69
2023-04-02T14:02:57.760Z,6.66
2023-04-02T14:06:52.708Z,6.66
2023-04-02T14:10:01.951Z,6.67
2023-04-02T14:13:28.163Z,6.70
2023-04-02T14:16:37.249Z,6.72
2023-04-02T14:19:48.910Z,6.74
2023-04-02T14:23:11.664Z,6.75
2023-04-02T14:26:26.391Z,6.76
2023-04-02T14:29:48.069Z,6.73
2023-04-02T14:32:53.841Z,6.70
2023-04-02T14:36:31.177Z,6.69
2023-04-02T14:39:56.475Z,6.69
2023-04-02T14:43:17.694Z,6.69
2023-04-02T14:46:26.633Z,6.68
2023-04-02T14:49:40.027Z,6.69
2023-04-02T14:52:47.492Z,6.71
2023-04-02T14:55:52.814Z,6.75
2023-04-02T14:59:23.260Z,6.78
2023-04-02T15:02:44.846Z,6.81
2023-04-02T15:05:52.779Z,6.82
2023-04-02T15:09:09.409Z,6.84
2023-04-02T15:12:22.724Z,6.84
2023-04-02T15:15:39.365Z,6.83
2023-04-02T15:18:43.355Z,6.83
2023-04-02T15:22:16.724Z,6.84
2023-04-02T15:25:27.598Z,6.84
2023-04-02T15:28:39.491Z,6.84
2023-04-02T15:31:46.110Z,6.83
2023-04-02T15:35:01.313Z,6.81
2023-04-02T15:38:22.924Z,6.78
2023-04-02T15:41:27.915Z,6.77
2023-04-02T15:44:31.023Z,6.74
2023-04-02T15:47:45.945Z,6.71
2023-04-02T15:51:05.321Z,6.69
2023-04-02T15:54:19.889Z,6.66
2023-04-02T15:57:26.214Z,6.62
2023-04-02T16:00:32.740Z,6.59
2023-04-02T16:03:54.469Z,6.55
2023-04-02T16:07:19.244Z,6.51
2023-04-02T16:10:40.123Z,6.49
2023-04-02T16:13:47.481Z,6.46
2023-04-02T16:16:52.456Z,6.44
2023-04-02T16:20:40.373Z,6.42
2023-04-02T16:23:43.615Z,6.40
2023-04-02T16:27:15.082Z,6.36
2023-04-02T16:34:34.462Z,6.30
2023-04-02T16:37:48.783Z,6.28
2023-04-02T16:41:14.791Z,6.26
2023-04-02T16:44:42.028Z,6.24
2023-04-02T16:47:57.092Z,6.22
2023-04-02T16:51:13.601Z,6.19
2023-04-02T16:54:22.736Z,6.18
2023-04-02T16:57:44.778Z,6.18
2023-04-02T17:00:56.734Z,6.18
2023-04-02T17:04:08.999Z,6.21
2023-04-02T17:07:12.228Z,6.23
2023-04-02T17:10:42.112Z,6.21
2023-04-02T17:13:51.921Z,6.16
2023-04-02T17:17:01.413Z,6.11
2023-04-02T17:20:14.181Z,6.08
2023-04-02T17:23:21.066Z,6.05
2023-04-02T17:26:35.518Z,6.03
2023-04-02T17:29:43.621Z,6.00
2023-04-02T17:32:46.850Z,5.98
2023-04-02T17:35:52.806Z,5.97
2023-04-02T17:39:23.705Z,5.94
2023-04-02T17:42:54.701Z,5.94
2023-04-02T17:46:06.421Z,5.94
2023-04-02T17:49:15.004Z,5.95
2023-04-02T17:52:29.003Z,5.97
2023-04-02T17:55:34.617Z,5.98
2023-04-02T17:59:05.135Z,5.99
2023-04-02T18:02:17.164Z,6.00
2023-04-02T18:05:44.503Z,6.00
2023-04-02T18:08:48.636Z,6.00
2023-04-02T18:12:01.780Z,6.00
2023-04-02T18:15:46.430Z,5.98
2023-04-02T18:19:06.103Z,5.97
2023-04-02T18:22:15.108Z,5.96
2023-04-02T18:25:59.874Z,5.95
2023-04-02T18:29:31.282Z,5.96
2023-04-02T18:32:52.921Z,5.96
2023-04-02T18:36:26.548Z,5.97
2023-04-02T18:39:29.800Z,5.96
2023-04-02T18:43:00.770Z,5.96
2023-04-02T18:46:07.027Z,5.95
2023-04-02T18:49:28.967Z,5.94
2023-04-02T18:52:32.355Z,5.93
2023-04-02T18:55:35.922Z,5.92
2023-04-02T18:58:49.423Z,5.92
2023-04-02T19:01:54.925Z,5.91
2023-04-02T19:05:05.741Z,5.91
2023-04-02T19:08:18.074Z,5.91
2023-04-02T19:11:29.398Z,5.89
2023-04-02T19:14:32.452Z,5.87
2023-04-02T19:17:59.184Z,5.85
2023-04-02T19:21:29.899Z,5.83
2023-04-02T19:25:04.073Z,5.84
2023-04-02T19:28:07.777Z,5.85
2023-04-02T19:31:27.060Z,5.85
2023-04-02T19:35:07.134Z,5.84
2023-04-02T19:38:25.223Z,5.84
2023-04-02T19:41:49.775Z,5.85
2023-04-02T19:44:54.460Z,5.85
2023-04-02T19:48:00.837Z,5.84
2023-04-02T19:51:04.649Z,5.83
2023-04-02T19:54:07.822Z,5.81
2023-04-02T19:57:15.618Z,5.79
2023-04-02T20:00:19.352Z,5.79
2023-04-02T20:03:23.111Z,5.78
2023-04-02T20:06:26.253Z,5.78
2023-04-02T20:09:29.921Z,5.77
2023-04-02T20:12:32.942Z,5.76
2023-04-02T20:15:36.794Z,5.76
2023-04-02T20:18:40.072Z,5.74
2023-04-02T20:21:43.290Z,5.73
2023-04-02T20:24:46.426Z,5.72
2023-04-02T20:27:49.523Z,5.73
2023-04-02T20:30:52.888Z,5.73
2023-04-02T20:33:57.506Z,5.73
2023-04-02T20:37:00.707Z,5.72
2023-04-02T20:40:05.025Z,5.70
2023-04-02T20:43:09.858Z,5.71
2023-04-02T20:46:13.076Z,5.69
2023-04-02T20:49:17.116Z,5.67
2023-04-02T20:52:20.268Z,5.66
2023-04-02T20:55:23.372Z,5.65
2023-04-02T20:58:26.600Z,5.64
2023-04-02T21:01:30.965Z,5.61
2023-04-02T21:04:34.151Z,5.55
2023-04-02T21:07:37.281Z,5.52
2023-04-02T21:10:41.267Z,5.50
2023-04-02T21:13:44.954Z,5.46
2023-04-02T21:16:48.079Z,5.45
2023-04-02T21:19:51.217Z,5.44
2023-04-02T21:22:54.350Z,5.42
2023-04-02T21:25:59.621Z,5.40
2023-04-02T21:29:03.783Z,5.38
2023-04-02T21:32:20.411Z,5.37
2023-04-02T21:35:24.215Z,5.36
2023-04-02T21:38:27.324Z,5.36
2023-04-02T21:41:42.569Z,5.34
2023-04-02T21:44:45.743Z,5.33
2023-04-02T21:47:48.896Z,5.30
2023-04-02T21:50:52.025Z,5.27
2023-04-02T21:53:55.739Z,5.23
2023-04-02T21:56:59.671Z,5.18
2023-04-02T22:00:08.189Z,5.10
2023-04-02T22:03:13.643Z,5.06
2023-04-02T22:06:22.880Z,5.04
2023-04-02T22:09:26.847Z,5.02
2023-04-02T22:12:29.980Z,5.01
2023-04-02T22:15:33.764Z,5.02
2023-04-02T22:18:38.595Z,5.03
2023-04-02T22:21:42.795Z,5.03
2023-04-02T22:24:46.421Z,5.04
2023-04-02T22:27:51.949Z,5.04
2023-04-02T22:30:56.579Z,5.01
2023-04-02T22:33:59.694Z,4.99
2023-04-02T22:37:02.814Z,4.98
2023-04-02T22:40:06.925Z,4.97
2023-04-02T22:43:10.042Z,4.97
2023-04-02T22:46:15.480Z,4.96
2023-04-02T22:49:19.523Z,4.94
2023-04-02T22:52:22.869Z,4.94
2023-04-02T22:55:26.720Z,4.94
2023-04-02T22:58:29.875Z,4.94
2023-04-02T23:01:35.827Z,4.92
2023-04-02T23:04:39.057Z,4.93
2023-04-02T23:07:42.181Z,4.93
2023-04-02T23:10:45.256Z,4.93
2023-04-02T23:13:49.994Z,4.95
2023-04-02T23:16:53.042Z,4.96
2023-04-02T23:19:56.121Z,4.97
2023-04-02T23:22:59.186Z,4.96
2023-04-02T23:26:12.373Z,4.95
2023-04-02T23:29:15.622Z,4.95
2023-04-02T23:32:19.667Z,4.95
2023-04-02T23:35:22.689Z,4.94
2023-04-02T23:38:26.800Z,4.95
2023-04-02T23:41:31.375Z,4.94
2023-04-02T23:44:34.469Z,4.94
2023-04-02T23:47:37.667Z,4.93
2023-04-02T23:50:40.811Z,4.91
2023-04-02T23:53:43.883Z,4.90
2023-04-02T23:56:47.357Z,4.89
2023-04-02T23:59:50.754Z,4.88
